createdAt,value
2022-09-07T00:00:31.825Z,11.722222222222229
2022-09-07T00:01:31.826Z,11.6111111111112
2022-09-07T00:02:31.901Z,11.6111111111112
2022-09-07T00:03:31.893Z,11.6111111111112
2022-09-07T00:04:31.904Z,11.6111111111112
2022-09-07T00:05:31.855Z,11.500000000000057
2022-09-07T00:06:31.820Z,11.500000000000057
2022-09-07T00:07:31.844Z,11.500000000000057
2022-09-07T00:08:31.920Z,11.500000000000057
2022-09-07T00:09:31.837Z,11.388888888888971
2022-09-07T00:10:31.811Z,11.388888888888971
2022-09-07T00:11:31.828Z,11.388888888888971
2022-09-07T00:12:31.829Z,11.388888888888971
2022-09-07T00:13:31.825Z,11.277777777777828
2022-09-07T00:14:31.826Z,11.277777777777828
2022-09-07T00:15:31.817Z,11.277777777777828
2022-09-07T00:16:31.930Z,11.277777777777828
2022-09-07T00:17:31.828Z,11.277777777777828
2022-09-07T00:18:31.871Z,11.277777777777828
2022-09-07T00:19:31.916Z,11.222222222222285
2022-09-07T00:20:31.995Z,11.222222222222285
2022-09-07T00:21:31.818Z,11.222222222222285
2022-09-07T00:22:31.792Z,11.222222222222285
2022-09-07T00:23:31.839Z,11.222222222222285
2022-09-07T00:24:31.808Z,11.222222222222285
2022-09-07T00:25:32.219Z,11.111111111111143
2022-09-07T00:26:31.827Z,11.111111111111143
2022-09-07T00:27:31.901Z,11.111111111111143
2022-09-07T00:28:32.042Z,11.111111111111143
2022-09-07T00:29:31.832Z,11.111111111111143
2022-09-07T00:30:31.789Z,11.111111111111143
2022-09-07T00:31:31.864Z,11.111111111111143
2022-09-07T00:32:31.825Z,11.000000000000057
2022-09-07T00:33:31.827Z,11.000000000000057
2022-09-07T00:34:31.803Z,11.000000000000057
2022-09-07T00:35:31.848Z,11.000000000000057
2022-09-07T00:36:31.846Z,11.000000000000057
2022-09-07T00:37:31.823Z,11.000000000000057
2022-09-07T00:38:32.036Z,11.000000000000057
2022-09-07T00:39:31.876Z,11.000000000000057
2022-09-07T00:40:31.841Z,10.888888888888971
2022-09-07T00:41:31.829Z,10.888888888888971
2022-09-07T00:42:31.805Z,10.888888888888971
2022-09-07T00:43:31.821Z,10.888888888888971
2022-09-07T00:44:31.835Z,10.888888888888971
2022-09-07T00:45:31.854Z,10.888888888888971
2022-09-07T00:46:32.004Z,10.888888888888971
2022-09-07T00:47:31.812Z,10.777777777777828
2022-09-07T00:48:31.925Z,10.777777777777828
2022-09-07T00:49:31.907Z,10.777777777777828
2022-09-07T00:50:31.807Z,10.722222222222285
2022-09-07T00:51:31.811Z,10.722222222222285
2022-09-07T00:52:31.830Z,10.722222222222285
2022-09-07T00:53:31.821Z,10.722222222222285
2022-09-07T00:54:31.819Z,10.722222222222285
2022-09-07T00:55:31.831Z,10.722222222222285
2022-09-07T00:56:31.849Z,10.722222222222285
2022-09-07T00:57:31.812Z,10.722222222222285
2022-09-07T00:58:31.877Z,10.722222222222285
2022-09-07T00:59:31.803Z,10.611111111111143
2022-09-07T01:00:31.824Z,10.611111111111143
2022-09-07T01:01:31.948Z,10.611111111111143
2022-09-07T01:02:31.886Z,10.611111111111143
2022-09-07T01:03:31.829Z,10.611111111111143
2022-09-07T01:04:31.845Z,10.611111111111143
2022-09-07T01:05:31.775Z,10.611111111111143
2022-09-07T01:06:31.834Z,10.611111111111143
2022-09-07T01:07:31.837Z,10.611111111111143
2022-09-07T01:08:32.061Z,10.611111111111143
2022-09-07T01:09:31.912Z,10.611111111111143
2022-09-07T01:10:31.822Z,10.611111111111143
2022-09-07T01:11:31.827Z,10.611111111111143
2022-09-07T01:12:31.844Z,10.611111111111143
2022-09-07T01:13:31.797Z,10.611111111111143
2022-09-07T01:14:31.882Z,10.611111111111143
2022-09-07T01:15:31.861Z,10.500000000000057
2022-09-07T01:16:31.814Z,10.611111111111143
2022-09-07T01:17:31.796Z,10.611111111111143
2022-09-07T01:18:32.017Z,10.611111111111143
2022-09-07T01:19:31.799Z,10.611111111111143
2022-09-07T01:20:31.774Z,10.611111111111143
2022-09-07T01:21:31.810Z,10.611111111111143
2022-09-07T01:22:31.857Z,10.722222222222285
2022-09-07T01:23:31.873Z,10.722222222222285
2022-09-07T01:24:31.824Z,10.722222222222285
2022-09-07T01:25:31.852Z,10.722222222222285
2022-09-07T01:26:31.805Z,10.777777777777828
2022-09-07T01:27:31.815Z,10.777777777777828
2022-09-07T01:28:31.996Z,10.777777777777828
2022-09-07T01:29:31.817Z,10.777777777777828
2022-09-07T01:30:31.808Z,10.777777777777828
2022-09-07T01:31:31.909Z,10.777777777777828
2022-09-07T01:32:31.838Z,10.777777777777828
2022-09-07T01:33:31.794Z,10.777777777777828
2022-09-07T01:34:31.825Z,10.777777777777828
2022-09-07T01:35:31.822Z,10.777777777777828
2022-09-07T01:36:31.786Z,10.722222222222285
2022-09-07T01:37:31.791Z,10.722222222222285
2022-09-07T01:38:32.046Z,10.722222222222285
2022-09-07T01:39:31.875Z,10.722222222222285
2022-09-07T01:40:31.947Z,10.722222222222285
2022-09-07T01:41:31.919Z,10.722222222222285
2022-09-07T01:42:32.023Z,10.722222222222285
2022-09-07T01:43:31.966Z,10.722222222222285
2022-09-07T01:44:31.924Z,10.722222222222285
2022-09-07T01:45:31.935Z,10.722222222222285
2022-09-07T01:46:32.035Z,10.722222222222285
2022-09-07T01:47:31.994Z,10.722222222222285
2022-09-07T01:48:31.881Z,10.722222222222285
2022-09-07T01:49:31.803Z,10.722222222222285
2022-09-07T01:50:31.815Z,10.722222222222285
2022-09-07T01:51:31.809Z,10.722222222222285
2022-09-07T01:52:31.750Z,10.722222222222285
2022-09-07T01:53:31.815Z,10.611111111111143
2022-09-07T01:54:31.804Z,10.611111111111143
2022-09-07T01:55:31.852Z,10.611111111111143
2022-09-07T01:56:31.793Z,10.611111111111143
2022-09-07T01:57:31.772Z,10.611111111111143
2022-09-07T01:58:32.025Z,10.611111111111143
2022-09-07T01:59:31.972Z,10.611111111111143
2022-09-07T02:00:31.799Z,10.611111111111143
2022-09-07T02:01:31.834Z,10.611111111111143
2022-09-07T02:02:31.865Z,10.611111111111143
2022-09-07T02:03:31.817Z,10.611111111111143
2022-09-07T02:04:31.783Z,10.500000000000057
2022-09-07T02:05:31.817Z,10.500000000000057
2022-09-07T02:06:31.804Z,10.500000000000057
2022-09-07T02:07:31.858Z,10.500000000000057
2022-09-07T02:08:31.965Z,10.388888888888914
2022-09-07T02:09:31.821Z,10.388888888888914
2022-09-07T02:10:31.776Z,10.388888888888914
2022-09-07T02:11:31.813Z,10.388888888888914
2022-09-07T02:12:31.779Z,10.388888888888914
2022-09-07T02:13:31.821Z,10.277777777777828
2022-09-07T02:14:31.803Z,10.277777777777828
2022-09-07T02:15:31.835Z,10.277777777777828
2022-09-07T02:16:31.739Z,10.277777777777828
2022-09-07T02:17:31.799Z,10.277777777777828
2022-09-07T02:18:31.890Z,10.277777777777828
2022-09-07T02:19:31.800Z,10.277777777777828
2022-09-07T02:20:31.724Z,10.277777777777828
2022-09-07T02:21:31.822Z,10.222222222222229
2022-09-07T02:22:31.794Z,10.222222222222229
2022-09-07T02:23:31.842Z,10.222222222222229
2022-09-07T02:24:31.735Z,10.222222222222229
2022-09-07T02:25:31.820Z,10.222222222222229
2022-09-07T02:26:31.796Z,10.222222222222229
2022-09-07T02:27:31.898Z,10.222222222222229
2022-09-07T02:28:31.978Z,10.222222222222229
2022-09-07T02:29:31.809Z,10.222222222222229
2022-09-07T02:30:31.790Z,10.222222222222229
2022-09-07T02:31:31.874Z,10.222222222222229
2022-09-07T02:32:31.745Z,10.277777777777828
2022-09-07T02:33:31.803Z,10.222222222222229
2022-09-07T02:34:31.823Z,10.222222222222229
2022-09-07T02:35:31.802Z,10.222222222222229
2022-09-07T02:36:31.720Z,10.222222222222229
2022-09-07T02:37:31.820Z,10.222222222222229
2022-09-07T02:38:32.044Z,10.222222222222229
2022-09-07T02:39:31.892Z,10.222222222222229
2022-09-07T02:40:31.702Z,10.222222222222229
2022-09-07T02:41:31.821Z,10.222222222222229
2022-09-07T02:42:31.784Z,10.222222222222229
2022-09-07T02:43:31.834Z,10.111111111111143
2022-09-07T02:44:31.880Z,10.111111111111143
2022-09-07T02:45:31.830Z,10.111111111111143
2022-09-07T02:46:31.990Z,10.111111111111143
2022-09-07T02:47:31.802Z,10.111111111111143
2022-09-07T02:48:31.800Z,10.111111111111143
2022-09-07T02:49:31.820Z,10.111111111111143
2022-09-07T02:50:31.827Z,10.111111111111143
2022-09-07T02:51:31.795Z,10.000000000000057
2022-09-07T02:52:31.753Z,10.000000000000057
2022-09-07T02:53:31.810Z,10.000000000000057
2022-09-07T02:54:31.806Z,10.000000000000057
2022-09-07T02:55:31.812Z,10.000000000000057
2022-09-07T02:56:31.668Z,10.000000000000057
2022-09-07T02:57:31.803Z,10.000000000000057
2022-09-07T02:58:31.948Z,10.000000000000057
2022-09-07T02:59:31.888Z,9.888888888888914
2022-09-07T03:00:31.683Z,9.888888888888914
2022-09-07T03:01:31.899Z,9.888888888888914
2022-09-07T03:02:32.029Z,9.888888888888914
2022-09-07T03:03:31.767Z,9.888888888888914
2022-09-07T03:04:31.763Z,9.888888888888914
2022-09-07T03:05:31.980Z,9.888888888888914
2022-09-07T03:06:31.869Z,9.888888888888914
2022-09-07T03:07:34.617Z,9.888888888888914
2022-09-07T03:08:31.853Z,9.888888888888914
2022-09-07T03:09:31.799Z,9.888888888888914
2022-09-07T03:10:31.940Z,9.888888888888914
2022-09-07T03:11:31.965Z,9.888888888888914
2022-09-07T03:12:31.825Z,9.888888888888914
2022-09-07T03:13:31.965Z,9.888888888888914
2022-09-07T03:14:31.928Z,9.888888888888914
2022-09-07T03:15:31.997Z,9.888888888888914
2022-09-07T03:16:31.769Z,9.777777777777828
2022-09-07T03:17:31.905Z,9.777777777777828
2022-09-07T03:18:32.124Z,9.777777777777828
2022-09-07T03:19:31.929Z,9.777777777777828
2022-09-07T03:20:31.752Z,9.777777777777828
2022-09-07T03:21:31.969Z,9.777777777777828
2022-09-07T03:22:31.883Z,9.722222222222285
2022-09-07T03:23:31.821Z,9.722222222222285
2022-09-07T03:24:31.718Z,9.722222222222285
2022-09-07T03:25:31.929Z,9.722222222222285
2022-09-07T03:26:31.823Z,9.722222222222285
2022-09-07T03:27:31.924Z,9.722222222222285
2022-09-07T03:28:31.831Z,9.722222222222285
2022-09-07T03:29:32.036Z,9.611111111111143
2022-09-07T03:30:31.851Z,9.611111111111143
2022-09-07T03:31:31.787Z,9.611111111111143
2022-09-07T03:32:31.662Z,9.611111111111143
2022-09-07T03:33:31.804Z,9.611111111111143
2022-09-07T03:34:31.801Z,9.611111111111143
2022-09-07T03:35:31.786Z,9.611111111111143
2022-09-07T03:36:31.671Z,9.611111111111143
2022-09-07T03:37:31.801Z,9.611111111111143
2022-09-07T03:38:31.953Z,9.611111111111143
2022-09-07T03:39:31.827Z,9.611111111111143
2022-09-07T03:40:31.714Z,9.500000000000057
2022-09-07T03:41:31.975Z,9.500000000000057
2022-09-07T03:42:31.916Z,9.500000000000057
2022-09-07T03:43:31.808Z,9.611111111111143
2022-09-07T03:44:31.609Z,9.611111111111143
2022-09-07T03:45:31.816Z,9.500000000000057
2022-09-07T03:46:31.848Z,9.500000000000057
2022-09-07T03:47:31.783Z,9.500000000000057
2022-09-07T03:48:31.788Z,9.500000000000057
2022-09-07T03:49:31.801Z,9.500000000000057
2022-09-07T03:50:31.802Z,9.500000000000057
2022-09-07T03:51:31.775Z,9.500000000000057
2022-09-07T03:52:31.614Z,9.500000000000057
2022-09-07T03:53:31.799Z,9.500000000000057
2022-09-07T03:54:31.807Z,9.500000000000057
2022-09-07T03:55:31.818Z,9.500000000000057
2022-09-07T03:56:31.718Z,9.500000000000057
2022-09-07T03:57:31.787Z,9.500000000000057
2022-09-07T03:58:31.970Z,9.500000000000057
2022-09-07T03:59:31.785Z,9.500000000000057
2022-09-07T04:00:31.640Z,9.500000000000057
2022-09-07T04:01:31.903Z,9.500000000000057
2022-09-07T04:02:31.946Z,9.500000000000057
2022-09-07T04:03:31.823Z,9.500000000000057
2022-09-07T04:04:31.675Z,9.500000000000057
2022-09-07T04:05:31.811Z,9.500000000000057
2022-09-07T04:06:31.776Z,9.500000000000057
2022-09-07T04:07:31.799Z,9.500000000000057
2022-09-07T04:08:31.810Z,9.500000000000057
2022-09-07T04:09:31.823Z,9.500000000000057
2022-09-07T04:10:31.773Z,9.500000000000057
2022-09-07T04:11:31.790Z,9.500000000000057
2022-09-07T04:12:31.596Z,9.388888888888914
2022-09-07T04:13:31.811Z,9.388888888888914
2022-09-07T04:14:31.829Z,9.388888888888914
2022-09-07T04:15:31.831Z,9.388888888888914
2022-09-07T04:16:31.792Z,9.388888888888914
2022-09-07T04:17:31.801Z,9.388888888888914
2022-09-07T04:18:31.965Z,9.388888888888914
2022-09-07T04:19:31.812Z,9.388888888888914
2022-09-07T04:20:31.595Z,9.388888888888914
2022-09-07T04:21:31.809Z,9.388888888888914
2022-09-07T04:22:31.851Z,9.277777777777828
2022-09-07T04:23:31.867Z,9.277777777777828
2022-09-07T04:24:31.580Z,9.277777777777828
2022-09-07T04:25:31.832Z,9.388888888888914
2022-09-07T04:26:31.800Z,9.388888888888914
2022-09-07T04:27:31.811Z,9.277777777777828
2022-09-07T04:28:31.741Z,9.277777777777828
2022-09-07T04:29:31.890Z,9.277777777777828
2022-09-07T04:30:31.832Z,9.277777777777828
2022-09-07T04:31:31.784Z,9.277777777777828
2022-09-07T04:32:31.614Z,9.277777777777828
2022-09-07T04:33:31.794Z,9.277777777777828
2022-09-07T04:34:32.001Z,9.277777777777828
2022-09-07T04:35:31.802Z,9.277777777777828
2022-09-07T04:36:31.592Z,9.277777777777828
2022-09-07T04:37:31.886Z,9.388888888888914
2022-09-07T04:38:31.973Z,9.388888888888914
2022-09-07T04:39:31.874Z,9.388888888888914
2022-09-07T04:40:31.562Z,9.388888888888914
2022-09-07T04:41:31.895Z,9.388888888888914
2022-09-07T04:42:31.868Z,9.388888888888914
2022-09-07T04:43:31.953Z,9.388888888888914
2022-09-07T04:44:31.553Z,9.388888888888914
2022-09-07T04:45:31.783Z,9.388888888888914
2022-09-07T04:46:31.789Z,9.388888888888914
2022-09-07T04:47:31.800Z,9.388888888888914
2022-09-07T04:48:31.831Z,9.388888888888914
2022-09-07T04:49:31.801Z,9.388888888888914
2022-09-07T04:50:31.899Z,9.500000000000057
2022-09-07T04:51:31.823Z,9.611111111111143
2022-09-07T04:52:31.579Z,9.722222222222285
2022-09-07T04:53:31.788Z,9.722222222222285
2022-09-07T04:54:31.764Z,9.722222222222285
2022-09-07T04:55:31.806Z,9.777777777777828
2022-09-07T04:56:31.721Z,9.777777777777828
2022-09-07T04:57:31.835Z,9.777777777777828
2022-09-07T04:58:31.967Z,9.777777777777828
2022-09-07T04:59:31.809Z,9.888888888888914
2022-09-07T05:00:31.535Z,9.888888888888914
2022-09-07T05:01:31.973Z,9.888888888888914
2022-09-07T05:02:31.860Z,9.888888888888914
2022-09-07T05:03:31.812Z,9.888888888888914
2022-09-07T05:04:31.486Z,9.888888888888914
2022-09-07T05:05:31.835Z,9.888888888888914
2022-09-07T05:06:31.813Z,9.888888888888914
2022-09-07T05:07:31.792Z,9.888888888888914
2022-09-07T05:08:31.645Z,9.888888888888914
2022-09-07T05:09:31.783Z,9.888888888888914
2022-09-07T05:10:31.817Z,9.888888888888914
2022-09-07T05:11:31.862Z,10.000000000000057
2022-09-07T05:12:31.497Z,10.111111111111143
2022-09-07T05:13:31.790Z,10.111111111111143
2022-09-07T05:14:31.792Z,10.111111111111143
2022-09-07T05:15:32.033Z,10.111111111111143
2022-09-07T05:16:31.622Z,10.111111111111143
2022-09-07T05:17:31.803Z,10.222222222222229
2022-09-07T05:18:31.909Z,10.222222222222229
2022-09-07T05:19:31.795Z,10.277777777777828
2022-09-07T05:20:31.533Z,10.277777777777828
2022-09-07T05:21:31.822Z,10.277777777777828
2022-09-07T05:22:31.770Z,10.277777777777828
2022-09-07T05:23:31.808Z,10.388888888888914
2022-09-07T05:24:31.511Z,10.500000000000057
2022-09-07T05:25:31.781Z,10.500000000000057
2022-09-07T05:26:31.796Z,10.611111111111143
2022-09-07T05:27:31.770Z,10.722222222222285
2022-09-07T05:28:31.902Z,10.777777777777828
2022-09-07T05:30:01.283Z,10.888888888888971
2022-09-07T05:31:31.896Z,11.000000000000057
2022-09-07T05:32:31.460Z,11.111111111111143
2022-09-07T05:34:32.393Z,11.222222222222285
2022-09-07T05:35:31.792Z,11.222222222222285
2022-09-07T05:36:31.462Z,11.111111111111143
2022-09-07T05:37:31.769Z,11.111111111111143
2022-09-07T05:38:31.822Z,11.111111111111143
2022-09-07T05:39:31.846Z,11.111111111111143
2022-09-07T05:40:31.503Z,11.111111111111143
2022-09-07T05:41:31.809Z,11.111111111111143
2022-09-07T05:42:31.800Z,11.111111111111143
2022-09-07T05:43:31.894Z,11.111111111111143
2022-09-07T05:44:46.417Z,11.111111111111143
2022-09-07T05:45:31.801Z,11.111111111111143
2022-09-07T05:46:31.953Z,11.111111111111143
2022-09-07T05:47:31.788Z,11.111111111111143
2022-09-07T05:48:31.556Z,11.277777777777828
2022-09-07T05:49:31.932Z,11.277777777777828
2022-09-07T05:50:31.948Z,11.277777777777828
2022-09-07T05:51:31.814Z,11.388888888888971
2022-09-07T05:52:31.467Z,11.388888888888971
2022-09-07T05:53:31.936Z,11.500000000000057
2022-09-07T05:54:31.798Z,11.500000000000057
2022-09-07T05:55:31.795Z,11.6111111111112
2022-09-07T05:56:31.584Z,11.6111111111112
2022-09-07T05:57:31.773Z,11.722222222222229
2022-09-07T05:58:32.016Z,11.722222222222229
2022-09-07T05:59:31.819Z,11.722222222222229
2022-09-07T06:00:31.520Z,11.722222222222229
2022-09-07T06:01:31.786Z,11.722222222222229
2022-09-07T06:02:33.692Z,11.6111111111112
2022-09-07T06:03:31.859Z,11.500000000000057
2022-09-07T06:04:31.517Z,11.500000000000057
2022-09-07T06:05:31.788Z,11.6111111111112
2022-09-07T06:06:31.812Z,11.6111111111112
2022-09-07T06:07:31.764Z,11.722222222222229
2022-09-07T06:08:31.521Z,11.722222222222229
2022-09-07T06:09:31.792Z,11.722222222222229
2022-09-07T06:10:45.959Z,11.722222222222229
2022-09-07T06:11:31.804Z,11.777777777777828
2022-09-07T06:12:31.493Z,11.777777777777828
2022-09-07T06:13:32.056Z,11.777777777777828
2022-09-07T06:14:31.778Z,11.888888888888971
2022-09-07T06:15:31.774Z,11.888888888888971
2022-09-07T06:16:31.517Z,12
2022-09-07T06:17:31.821Z,12
2022-09-07T06:18:31.801Z,12
2022-09-07T06:19:31.761Z,12.111111111111143
2022-09-07T06:20:31.447Z,12.222222222222285
2022-09-07T06:21:31.812Z,12.277777777777828
2022-09-07T06:22:31.806Z,12.277777777777828
2022-09-07T06:23:31.891Z,12.277777777777828
2022-09-07T06:24:31.415Z,12.222222222222285
2022-09-07T06:25:31.798Z,12.111111111111143
2022-09-07T06:26:31.786Z,12.111111111111143
2022-09-07T06:27:31.768Z,12.111111111111143
2022-09-07T06:28:31.483Z,12.111111111111143
2022-09-07T06:29:31.915Z,12.111111111111143
2022-09-07T06:30:31.797Z,12.222222222222285
2022-09-07T06:31:31.977Z,12.222222222222285
2022-09-07T06:32:45.439Z,12.277777777777828
2022-09-07T06:33:31.939Z,12.277777777777828
2022-09-07T06:34:31.805Z,12.277777777777828
2022-09-07T06:35:31.897Z,12.277777777777828
2022-09-07T06:36:31.429Z,12.388888888888914
2022-09-07T06:37:31.798Z,12.388888888888914
2022-09-07T06:38:32.057Z,12.388888888888914
2022-09-07T06:39:31.869Z,12.500000000000057
2022-09-07T06:40:31.422Z,12.611111111111143
2022-09-07T06:41:59.549Z,12.722222222222285
2022-09-07T06:42:31.822Z,12.722222222222285
2022-09-07T06:43:31.890Z,12.722222222222285
2022-09-07T06:44:31.590Z,12.777777777777828
2022-09-07T06:45:31.914Z,12.777777777777828
2022-09-07T06:47:31.979Z,12.777777777777828
2022-09-07T06:48:31.557Z,12.722222222222285
2022-09-07T06:49:31.799Z,12.722222222222285
2022-09-07T06:50:31.787Z,12.722222222222285
2022-09-07T06:51:31.868Z,12.722222222222285
2022-09-07T06:54:59.955Z,12.722222222222285
2022-09-07T06:55:31.824Z,12.777777777777828
2022-09-07T06:56:31.426Z,12.777777777777828
2022-09-07T06:57:31.795Z,12.777777777777828
2022-09-07T06:58:31.924Z,12.888888888888914
2022-09-07T06:59:31.788Z,12.888888888888914
2022-09-07T07:00:35.391Z,13.000000000000057
2022-09-07T07:01:31.901Z,13.000000000000057
2022-09-07T07:02:31.798Z,13.111111111111143
2022-09-07T07:03:31.928Z,13.111111111111143
2022-09-07T07:04:33.270Z,13.111111111111143
2022-09-07T07:05:31.802Z,13.222222222222285
2022-09-07T07:06:31.767Z,13.222222222222285
2022-09-07T07:07:31.805Z,13.222222222222285
2022-09-07T07:08:31.802Z,13.111111111111143
2022-09-07T07:09:31.784Z,13.111111111111143
2022-09-07T07:10:31.760Z,13.222222222222285
2022-09-07T07:11:31.778Z,13.277777777777828
2022-09-07T07:13:31.846Z,13.277777777777828
2022-09-07T07:14:34.371Z,13.277777777777828
2022-09-07T07:15:31.795Z,13.277777777777828
2022-09-07T07:16:31.666Z,13.277777777777828
2022-09-07T07:17:31.782Z,13.388888888888914
2022-09-07T07:18:32.096Z,13.388888888888914
2022-09-07T07:19:31.762Z,13.500000000000057
2022-09-07T07:20:31.352Z,13.500000000000057
2022-09-07T07:21:48.563Z,13.6111111111112
2022-09-07T07:22:46.509Z,13.722222222222285
2022-09-07T07:23:31.977Z,13.777777777777828
2022-09-07T07:24:31.322Z,13.777777777777828
2022-09-07T07:25:31.754Z,13.777777777777828
2022-09-07T07:26:31.761Z,13.777777777777828
2022-09-07T07:27:31.796Z,13.888888888888971
2022-09-07T07:29:02.145Z,13.888888888888971
2022-09-07T07:29:31.825Z,14.1111111111112
2022-09-07T07:30:31.745Z,14.1111111111112
2022-09-07T07:31:31.797Z,14.277777777777828
2022-09-07T07:32:31.338Z,14.277777777777828
2022-09-07T07:33:32.016Z,14.611111111111143
2022-09-07T07:34:31.855Z,14.722222222222285
2022-09-07T07:35:31.774Z,14.777777777777828
2022-09-07T07:36:31.345Z,14.777777777777828
2022-09-07T07:37:31.773Z,14.777777777777828
2022-09-07T07:39:00.496Z,14.777777777777828
2022-09-07T07:40:32.555Z,14.888888888888914
2022-09-07T07:41:57.563Z,15.111111111111143
2022-09-07T07:42:31.803Z,15.277777777777828
2022-09-07T07:43:31.906Z,15.500000000000057
2022-09-07T07:44:31.308Z,15.500000000000057
2022-09-07T07:45:55.644Z,15.500000000000057
2022-09-07T07:46:31.860Z,15.000000000000057
2022-09-07T07:47:31.769Z,15.000000000000057
2022-09-07T07:48:31.369Z,15.222222222222285
2022-09-07T07:49:31.766Z,15.222222222222285
2022-09-07T07:50:32.665Z,15.222222222222285
2022-09-07T07:52:49.441Z,15.388888888888914
2022-09-07T07:53:40.848Z,15.500000000000057
2022-09-07T07:53:42.899Z,15.722222222222285
2022-09-07T07:54:31.771Z,15.777777777777828
2022-09-07T07:55:44.530Z,15.722222222222285
2022-09-07T07:56:31.295Z,15.111111111111143
2022-09-07T07:57:31.806Z,15.111111111111143
2022-09-07T07:58:31.756Z,15.388888888888914
2022-09-07T07:59:31.782Z,15.888888888888914
2022-09-07T08:00:52.954Z,16.1111111111112
2022-09-07T08:01:31.934Z,16.222222222222285
2022-09-07T08:02:31.769Z,16.222222222222285
2022-09-07T08:03:31.841Z,16.27777777777783
2022-09-07T08:04:31.288Z,16.500000000000057
2022-09-07T08:05:31.768Z,16.6111111111112
2022-09-07T08:06:31.793Z,16.77777777777783
2022-09-07T08:07:31.742Z,16.77777777777783
2022-09-07T08:08:31.279Z,17
2022-09-07T08:09:31.894Z,17.111111111111143
2022-09-07T08:10:31.782Z,17.111111111111143
2022-09-07T08:11:31.741Z,17
2022-09-07T08:12:31.237Z,16.6111111111112
2022-09-07T08:13:31.891Z,16.6111111111112
2022-09-07T08:14:31.943Z,16.6111111111112
2022-09-07T08:15:31.754Z,16.72222222222223
2022-09-07T08:16:31.287Z,17
2022-09-07T08:17:31.797Z,17.111111111111143
2022-09-07T08:18:31.753Z,17.111111111111143
2022-09-07T08:19:31.771Z,16.88888888888897
2022-09-07T08:20:31.296Z,16.72222222222223
2022-09-07T08:21:32.016Z,16.72222222222223
2022-09-07T08:22:34.766Z,16.500000000000057
2022-09-07T08:23:31.835Z,16.72222222222223
2022-09-07T08:24:31.278Z,16.88888888888897
2022-09-07T08:25:32.350Z,17
2022-09-07T08:26:31.762Z,17
2022-09-07T08:27:31.778Z,16.27777777777783
2022-09-07T08:28:31.254Z,16.27777777777783
2022-09-07T08:29:34.586Z,16.27777777777783
2022-09-07T08:30:31.759Z,16.38888888888897
2022-09-07T08:31:31.792Z,16.38888888888897
2022-09-07T08:32:31.226Z,16.38888888888897
2022-09-07T08:33:31.854Z,16.27777777777783
2022-09-07T08:34:31.794Z,16.38888888888897
2022-09-07T08:35:31.760Z,16.38888888888897
2022-09-07T08:36:31.261Z,16.38888888888897
2022-09-07T08:37:31.877Z,16.38888888888897
2022-09-07T08:38:31.777Z,16.500000000000057
2022-09-07T08:39:31.791Z,16.6111111111112
2022-09-07T08:40:31.238Z,16.500000000000057
2022-09-07T08:41:31.886Z,16.500000000000057
2022-09-07T08:42:31.778Z,16.500000000000057
2022-09-07T08:43:31.825Z,16.500000000000057
2022-09-07T08:44:31.221Z,16.72222222222223
2022-09-07T08:45:31.777Z,16.72222222222223
2022-09-07T08:46:31.812Z,16.500000000000057
2022-09-07T08:47:31.753Z,16.1111111111112
2022-09-07T08:48:31.183Z,16.1111111111112
2022-09-07T08:49:31.754Z,16.1111111111112
2022-09-07T08:50:31.803Z,16.1111111111112
2022-09-07T08:51:31.775Z,16.1111111111112
2022-09-07T08:52:31.225Z,16.500000000000057
2022-09-07T08:53:32.012Z,16.77777777777783
2022-09-07T08:54:31.785Z,16.88888888888897
2022-09-07T08:55:31.724Z,16.77777777777783
2022-09-07T08:56:33.828Z,16.500000000000057
2022-09-07T08:57:31.805Z,16.500000000000057
2022-09-07T08:58:48.653Z,16.6111111111112
2022-09-07T08:59:31.826Z,16.6111111111112
2022-09-07T09:00:31.194Z,16.500000000000057
2022-09-07T09:01:32.382Z,15.888888888888914
2022-09-07T09:02:36.518Z,15.722222222222285
2022-09-07T09:03:32.457Z,15.722222222222285
2022-09-07T09:04:32.145Z,16.000000000000057
2022-09-07T09:05:31.906Z,16.000000000000057
2022-09-07T09:06:31.970Z,16.000000000000057
2022-09-07T09:07:31.759Z,16.000000000000057
2022-09-07T09:08:31.201Z,16.222222222222285
2022-09-07T09:09:31.759Z,16.500000000000057
2022-09-07T09:10:31.764Z,16.6111111111112
2022-09-07T09:11:31.751Z,16.88888888888897
2022-09-07T09:12:35.518Z,17.111111111111143
2022-09-07T09:13:31.915Z,17.111111111111143
2022-09-07T09:14:31.780Z,17.222222222222285
2022-09-07T09:15:31.802Z,17.27777777777783
2022-09-07T09:16:31.185Z,17.222222222222285
2022-09-07T09:17:31.772Z,17.111111111111143
2022-09-07T09:18:31.847Z,17
2022-09-07T09:19:31.760Z,16.88888888888897